sensor_id;sensor_type;location;lat;lon;timestamp;pressure;altitude;pressure_sealevel;temperature;humidity
52343;BME280;38277;51.972;4.624;2023-02-12T00:00:04;104040.0;;;10.1;73.0
52343;BME280;38277;51.972;4.624;2023-02-12T00:09:10;104040.0;;;10.0;73.0
52343;BME280;38277;51.972;4.624;2023-02-12T00:13:32;104050.0;;;10.0;73.0
52343;BME280;38277;51.972;4.624;2023-02-12T00:18:09;104050.0;;;10.0;73.0
52343;BME280;38277;51.972;4.624;2023-02-12T00:31:37;104040.0;;;10.0;73.5
52343;BME280;38277;51.972;4.624;2023-02-12T00:36:02;104040.0;;;9.9;73.5
52343;BME280;38277;51.972;4.624;2023-02-12T00:44:45;104040.0;;;9.9;73.5
52343;BME280;38277;51.972;4.624;2023-02-12T00:53:46;104030.0;;;9.9;73.5
52343;BME280;38277;51.972;4.624;2023-02-12T00:58:22;104040.0;;;9.9;73.5
52343;BME280;38277;51.972;4.624;2023-02-12T01:07:57;104030.0;;;9.8;73.5
52343;BME280;38277;51.972;4.624;2023-02-12T01:12:11;104030.0;;;9.8;73.5
52343;BME280;38277;51.972;4.624;2023-02-12T01:16:20;104030.0;;;9.8;74.0
52343;BME280;38277;51.972;4.624;2023-02-12T01:20:56;104030.0;;;9.8;74.0
52343;BME280;38277;51.972;4.624;2023-02-12T01:25:23;104030.0;;;9.7;74.0
52343;BME280;38277;51.972;4.624;2023-02-12T01:30:09;104030.0;;;9.7;74.0
52343;BME280;38277;51.972;4.624;2023-02-12T01:34:59;104040.0;;;9.6;74.0
52343;BME280;38277;51.972;4.624;2023-02-12T01:43:42;104040.0;;;9.6;74.0
52343;BME280;38277;51.972;4.624;2023-02-12T01:47:53;104030.0;;;9.6;74.0
52343;BME280;38277;51.972;4.624;2023-02-12T02:01:34;104030.0;;;9.5;74.5
52343;BME280;38277;51.972;4.624;2023-02-12T02:06:14;104040.0;;;9.5;74.5
52343;BME280;38277;51.972;4.624;2023-02-12T02:10:23;104020.0;;;9.5;74.5
52343;BME280;38277;51.972;4.624;2023-02-12T02:26:13;104030.0;;;9.5;74.5
52343;BME280;38277;51.972;4.624;2023-02-12T02:31:34;104040.0;;;9.5;74.5
52343;BME280;38277;51.972;4.624;2023-02-12T02:38:51;104030.0;;;9.4;74.5
52343;BME280;38277;51.972;4.624;2023-02-12T02:42:06;104030.0;;;9.4;74.5
52343;BME280;38277;51.972;4.624;2023-02-12T02:46:59;104030.0;;;9.4;74.5
52343;BME280;38277;51.972;4.624;2023-02-12T02:50:48;104030.0;;;9.4;74.5
52343;BME280;38277;51.972;4.624;2023-02-12T03:04:45;104030.0;;;9.3;74.5
52343;BME280;38277;51.972;4.624;2023-02-12T03:09:04;104010.0;;;9.3;74.5
52343;BME280;38277;51.972;4.624;2023-02-12T03:13:47;104020.0;;;9.3;75.0
52343;BME280;38277;51.972;4.624;2023-02-12T03:18:13;104010.0;;;9.3;74.5
52343;BME280;38277;51.972;4.624;2023-02-12T03:22:45;104020.0;;;9.3;74.5
52343;BME280;38277;51.972;4.624;2023-02-12T03:27:03;104010.0;;;9.3;74.5
52343;BME280;38277;51.972;4.624;2023-02-12T03:41:14;104010.0;;;9.3;74.5
52343;BME280;38277;51.972;4.624;2023-02-12T03:45:37;104010.0;;;9.3;74.5
52343;BME280;38277;51.972;4.624;2023-02-12T03:49:35;104020.0;;;9.3;74.5
52343;BME280;38277;51.972;4.624;2023-02-12T04:07:29;104020.0;;;9.3;74.5
52343;BME280;38277;51.972;4.624;2023-02-12T04:12:05;104020.0;;;9.3;74.5
52343;BME280;38277;51.972;4.624;2023-02-12T04:21:18;104030.0;;;9.3;74.5
52343;BME280;38277;51.972;4.624;2023-02-12T04:25:56;104040.0;;;9.3;74.5
52343;BME280;38277;51.972;4.624;2023-02-12T04:30:04;104040.0;;;9.3;74.5
52343;BME280;38277;51.972;4.624;2023-02-12T04:35:05;104050.0;;;9.3;74.5
52343;BME280;38277;51.972;4.624;2023-02-12T04:44:11;104060.0;;;9.2;74.5
52343;BME280;38277;51.972;4.624;2023-02-12T04:47:56;104060.0;;;9.2;75.0
52343;BME280;38277;51.972;4.624;2023-02-12T04:53:06;104070.0;;;9.2;75.0
52343;BME280;38277;51.972;4.624;2023-02-12T05:06:08;104060.0;;;9.2;75.0
52343;BME280;38277;51.972;4.624;2023-02-12T05:11:03;104060.0;;;9.1;75.0
52343;BME280;38277;51.972;4.624;2023-02-12T05:15:26;104050.0;;;9.1;75.0
52343;BME280;38277;51.972;4.624;2023-02-12T05:19:25;104060.0;;;9.1;75.0
52343;BME280;38277;51.972;4.624;2023-02-12T05:24:07;104040.0;;;9.1;75.0
52343;BME280;38277;51.972;4.624;2023-02-12T05:28:35;104050.0;;;9.1;75.0
52343;BME280;38277;51.972;4.624;2023-02-12T05:33:24;104050.0;;;9.1;75.0
52343;BME280;38277;51.972;4.624;2023-02-12T05:37:43;104060.0;;;9.1;75.0
52343;BME280;38277;51.972;4.624;2023-02-12T05:41:48;104060.0;;;9.1;75.0
52343;BME280;38277;51.972;4.624;2023-02-12T05:46:40;104060.0;;;9.1;75.0
52343;BME280;38277;51.972;4.624;2023-02-12T05:51:26;104060.0;;;9.1;75.0
52343;BME280;38277;51.972;4.624;2023-02-12T05:55:44;104060.0;;;9.1;75.0
52343;BME280;38277;51.972;4.624;2023-02-12T05:59:58;104060.0;;;9.1;75.0
52343;BME280;38277;51.972;4.624;2023-02-12T06:04:27;104070.0;;;9.1;75.0
52343;BME280;38277;51.972;4.624;2023-02-12T06:09:12;104060.0;;;9.0;75.5
52343;BME280;38277;51.972;4.624;2023-02-12T06:13:35;104070.0;;;9.0;75.5
52343;BME280;38277;51.972;4.624;2023-02-12T06:18:11;104050.0;;;9.0;75.5
52343;BME280;38277;51.972;4.624;2023-02-12T06:22:35;104060.0;;;9.0;75.5
52343;BME280;38277;51.972;4.624;2023-02-12T06:27:12;104060.0;;;9.0;75.5
52343;BME280;38277;51.972;4.624;2023-02-12T06:31:41;104060.0;;;8.9;75.5
52343;BME280;38277;51.972;4.624;2023-02-12T06:36:02;104060.0;;;8.9;75.5
52343;BME280;38277;51.972;4.624;2023-02-12T06:40:32;104050.0;;;8.9;75.5
52343;BME280;38277;51.972;4.624;2023-02-12T06:49:35;104060.0;;;8.9;75.5
52343;BME280;38277;51.972;4.624;2023-02-12T06:54:12;104060.0;;;8.9;76.0
52343;BME280;38277;51.972;4.624;2023-02-12T06:58:18;104080.0;;;8.9;76.0
52343;BME280;38277;51.972;4.624;2023-02-12T07:03:09;104080.0;;;8.9;75.5
52343;BME280;38277;51.972;4.624;2023-02-12T07:07:33;104080.0;;;8.9;75.5
52343;BME280;38277;51.972;4.624;2023-02-12T07:11:46;104090.0;;;8.9;76.0
52343;BME280;38277;51.972;4.624;2023-02-12T07:16:19;104090.0;;;8.9;76.0
52343;BME280;38277;51.972;4.624;2023-02-12T07:25:41;104110.0;;;8.9;76.0
52343;BME280;38277;51.972;4.624;2023-02-12T07:30:10;104100.0;;;8.9;76.0
52343;BME280;38277;51.972;4.624;2023-02-12T07:34:35;104110.0;;;8.9;76.0
52343;BME280;38277;51.972;4.624;2023-02-12T07:39:04;104110.0;;;8.9;76.0
52343;BME280;38277;51.972;4.624;2023-02-12T07:43:53;104120.0;;;9.0;76.0
52343;BME280;38277;51.972;4.624;2023-02-12T07:47:52;104120.0;;;9.0;76.0
52343;BME280;38277;51.972;4.624;2023-02-12T07:52:40;104120.0;;;9.0;76.0
52343;BME280;38277;51.972;4.624;2023-02-12T07:57:12;104130.0;;;9.1;76.0
52343;BME280;38277;51.972;4.624;2023-02-12T08:01:49;104130.0;;;9.1;76.0
52343;BME280;38277;51.972;4.624;2023-02-12T08:05:52;104130.0;;;9.2;76.0
52343;BME280;38277;51.972;4.624;2023-02-12T08:10:23;104130.0;;;9.2;76.0
52343;BME280;38277;51.972;4.624;2023-02-12T08:14:44;104120.0;;;9.2;76.0
52343;BME280;38277;51.972;4.624;2023-02-12T08:19:42;104120.0;;;9.3;76.0
52343;BME280;38277;51.972;4.624;2023-02-12T08:24:01;104120.0;;;9.3;76.0
52343;BME280;38277;51.972;4.624;2023-02-12T08:28:16;104130.0;;;9.4;76.0
52343;BME280;38277;51.972;4.624;2023-02-12T08:33:08;104130.0;;;9.5;76.0
52343;BME280;38277;51.972;4.624;2023-02-12T08:37:34;104140.0;;;9.5;75.5
52343;BME280;38277;51.972;4.624;2023-02-12T08:41:55;104140.0;;;9.6;75.5
52343;BME280;38277;51.972;4.624;2023-02-12T08:51:11;104140.0;;;9.7;75.5
52343;BME280;38277;51.972;4.624;2023-02-12T08:55:46;104150.0;;;9.8;75.0
52343;BME280;38277;51.972;4.624;2023-02-12T08:59:47;104150.0;;;9.8;74.5
52343;BME280;38277;51.972;4.624;2023-02-12T09:04:34;104160.0;;;9.9;74.5
52343;BME280;38277;51.972;4.624;2023-02-12T09:08:54;104150.0;;;10.0;74.5
52343;BME280;38277;51.972;4.624;2023-02-12T09:13:28;104150.0;;;10.1;74.5
52343;BME280;38277;51.972;4.624;2023-02-12T09:17:59;104150.0;;;10.2;74.0
52343;BME280;38277;51.972;4.624;2023-02-12T09:27:12;104170.0;;;10.4;73.5
52343;BME280;38277;51.972;4.624;2023-02-12T09:31:26;104170.0;;;10.4;73.0
52343;BME280;38277;51.972;4.624;2023-02-12T09:36:28;104170.0;;;10.5;72.5
52343;BME280;38277;51.972;4.624;2023-02-12T09:40:32;104170.0;;;10.6;72.0
52343;BME280;38277;51.972;4.624;2023-02-12T09:45:32;104170.0;;;10.6;72.0
52343;BME280;38277;51.972;4.624;2023-02-12T09:50:24;104170.0;;;10.6;71.5
52343;BME280;38277;51.972;4.624;2023-02-12T09:54:16;104180.0;;;10.7;70.5
52343;BME280;38277;51.972;4.624;2023-02-12T09:58:51;104160.0;;;10.8;69.5
52343;BME280;38277;51.972;4.624;2023-02-12T10:03:17;104160.0;;;10.8;69.0
52343;BME280;38277;51.972;4.624;2023-02-12T10:08:25;104160.0;;;10.9;67.5
52343;BME280;38277;51.972;4.624;2023-02-12T10:13:02;104160.0;;;10.9;66.5
52343;BME280;38277;51.972;4.624;2023-02-12T10:17:45;104170.0;;;11.0;66.0
52343;BME280;38277;51.972;4.624;2023-02-12T10:26:48;104160.0;;;11.1;63.5
52343;BME280;38277;51.972;4.624;2023-02-12T10:30:02;104170.0;;;11.2;62.5
52343;BME280;38277;51.972;4.624;2023-02-12T10:34:37;104160.0;;;11.2;62.5
52343;BME280;38277;51.972;4.624;2023-02-12T10:38:48;104170.0;;;11.3;61.5
52343;BME280;38277;51.972;4.624;2023-02-12T10:43:41;104150.0;;;11.3;60.5
52343;BME280;38277;51.972;4.624;2023-02-12T10:48:15;104150.0;;;11.3;60.5
52343;BME280;38277;51.972;4.624;2023-02-12T10:52:52;104160.0;;;11.4;60.0
52343;BME280;38277;51.972;4.624;2023-02-12T11:01:33;104170.0;;;11.5;59.0
52343;BME280;38277;51.972;4.624;2023-02-12T11:06:08;104160.0;;;11.4;58.5
52343;BME280;38277;51.972;4.624;2023-02-12T11:14:48;104150.0;;;11.5;58.5
52343;BME280;38277;51.972;4.624;2023-02-12T11:19:31;104150.0;;;11.5;58.5
52343;BME280;38277;51.972;4.624;2023-02-12T11:24:30;104160.0;;;11.6;58.5
52343;BME280;38277;51.972;4.624;2023-02-12T11:28:53;104150.0;;;11.5;58.5
52343;BME280;38277;51.972;4.624;2023-02-12T11:33:34;104150.0;;;11.6;58.5
52343;BME280;38277;51.972;4.624;2023-02-12T11:37:42;104160.0;;;11.6;58.0
52343;BME280;38277;51.972;4.624;2023-02-12T11:42:36;104140.0;;;11.5;57.5
52343;BME280;38277;51.972;4.624;2023-02-12T11:46:35;104140.0;;;11.4;57.5
52343;BME280;38277;51.972;4.624;2023-02-12T11:51:19;104140.0;;;11.4;57.5
52343;BME280;38277;51.972;4.624;2023-02-12T11:55:24;104140.0;;;11.4;58.0
52343;BME280;38277;51.972;4.624;2023-02-12T12:00:28;104140.0;;;11.5;58.0
52343;BME280;38277;51.972;4.624;2023-02-12T12:04:19;104130.0;;;11.5;58.0
52343;BME280;38277;51.972;4.624;2023-02-12T12:09:18;104130.0;;;11.6;58.5
52343;BME280;38277;51.972;4.624;2023-02-12T12:13:48;104130.0;;;11.6;58.0
52343;BME280;38277;51.972;4.624;2023-02-12T12:18:25;104120.0;;;11.6;58.0
52343;BME280;38277;51.972;4.624;2023-02-12T12:22:53;104130.0;;;11.7;58.0
52343;BME280;38277;51.972;4.624;2023-02-12T12:31:44;104120.0;;;11.7;57.5
52343;BME280;38277;51.972;4.624;2023-02-12T12:37:00;104110.0;;;11.7;57.5
52343;BME280;38277;51.972;4.624;2023-02-12T12:42:54;104110.0;;;11.6;57.0
52343;BME280;38277;51.972;4.624;2023-02-12T12:52:56;104110.0;;;11.5;57.0
52343;BME280;38277;51.972;4.624;2023-02-12T12:57:57;104100.0;;;11.5;57.5
52343;BME280;38277;51.972;4.624;2023-02-12T13:04:57;104100.0;;;11.5;57.5
52343;BME280;38277;51.972;4.624;2023-02-12T13:14:07;104090.0;;;11.6;57.5
52343;BME280;38277;51.972;4.624;2023-02-12T13:18:13;104090.0;;;11.6;57.0
52343;BME280;38277;51.972;4.624;2023-02-12T13:22:54;104080.0;;;11.5;57.0
52343;BME280;38277;51.972;4.624;2023-02-12T13:27:18;104080.0;;;11.5;57.5
52343;BME280;38277;51.972;4.624;2023-02-12T13:29:53;104070.0;;;11.5;57.0
52343;BME280;38277;51.972;4.624;2023-02-12T13:32:19;104070.0;;;11.4;57.5
52343;BME280;38277;51.972;4.624;2023-02-12T13:34:44;104070.0;;;11.5;57.5
52343;BME280;38277;51.972;4.624;2023-02-12T13:38:55;104070.0;;;11.5;57.5
52343;BME280;38277;51.972;4.624;2023-02-12T13:43:55;104070.0;;;11.5;57.5
52343;BME280;38277;51.972;4.624;2023-02-12T13:48:40;104060.0;;;11.4;57.5
52343;BME280;38277;51.972;4.624;2023-02-12T13:52:46;104070.0;;;11.3;58.0
52343;BME280;38277;51.972;4.624;2023-02-12T13:57:15;104070.0;;;11.3;58.0
52343;BME280;38277;51.972;4.624;2023-02-12T14:06:06;104050.0;;;11.3;58.5
52343;BME280;38277;51.972;4.624;2023-02-12T14:10:22;104040.0;;;11.2;58.5
52343;BME280;38277;51.972;4.624;2023-02-12T14:14:52;104040.0;;;11.2;59.0
52343;BME280;38277;51.972;4.624;2023-02-12T14:20:20;104040.0;;;11.2;59.0
52343;BME280;38277;51.972;4.624;2023-02-12T14:23:52;104050.0;;;11.2;59.0
52343;BME280;38277;51.972;4.624;2023-02-12T14:28:56;104030.0;;;11.1;59.0
52343;BME280;38277;51.972;4.624;2023-02-12T14:33:26;104040.0;;;11.1;59.5
52343;BME280;38277;51.972;4.624;2023-02-12T14:42:55;104030.0;;;11.0;59.0
52343;BME280;38277;51.972;4.624;2023-02-12T14:46:51;104030.0;;;11.0;59.0
52343;BME280;38277;51.972;4.624;2023-02-12T14:55:45;104040.0;;;10.9;59.5
52343;BME280;38277;51.972;4.624;2023-02-12T15:00:36;104030.0;;;10.9;59.0
52343;BME280;38277;51.972;4.624;2023-02-12T15:04:37;104030.0;;;10.8;59.0
52343;BME280;38277;51.972;4.624;2023-02-12T15:09:20;104030.0;;;10.8;59.0
52343;BME280;38277;51.972;4.624;2023-02-12T15:13:41;104020.0;;;10.8;59.5
52343;BME280;38277;51.972;4.624;2023-02-12T15:17:57;104020.0;;;10.8;59.5
52343;BME280;38277;51.972;4.624;2023-02-12T15:22:39;104020.0;;;10.7;59.5
52343;BME280;38277;51.972;4.624;2023-02-12T15:26:58;104030.0;;;10.7;60.0
52343;BME280;38277;51.972;4.624;2023-02-12T15:31:32;104020.0;;;10.7;60.0
52343;BME280;38277;51.972;4.624;2023-02-12T15:36:16;104020.0;;;10.6;59.5
52343;BME280;38277;51.972;4.624;2023-02-12T15:40:28;104020.0;;;10.5;59.5
52343;BME280;38277;51.972;4.624;2023-02-12T15:44:45;104020.0;;;10.4;59.5
52343;BME280;38277;51.972;4.624;2023-02-12T15:49:40;104020.0;;;10.4;59.5
52343;BME280;38277;51.972;4.624;2023-02-12T15:58:39;104010.0;;;10.5;60.0
52343;BME280;38277;51.972;4.624;2023-02-12T16:03:18;104010.0;;;10.5;60.0
52343;BME280;38277;51.972;4.624;2023-02-12T16:07:23;104020.0;;;10.5;60.0
52343;BME280;38277;51.972;4.624;2023-02-12T16:11:48;104020.0;;;10.5;60.0
52343;BME280;38277;51.972;4.624;2023-02-12T16:16:18;104010.0;;;10.4;60.5
52343;BME280;38277;51.972;4.624;2023-02-12T16:21:00;104010.0;;;10.4;60.5
52343;BME280;38277;51.972;4.624;2023-02-12T16:29:58;104010.0;;;10.4;61.0
52343;BME280;38277;51.972;4.624;2023-02-12T16:34:38;104020.0;;;10.3;61.0
52343;BME280;38277;51.972;4.624;2023-02-12T16:43:33;104020.0;;;10.3;61.5
52343;BME280;38277;51.972;4.624;2023-02-12T16:48:30;104020.0;;;10.2;62.0
52343;BME280;38277;51.972;4.624;2023-02-12T16:52:40;104020.0;;;10.2;62.0
52343;BME280;38277;51.972;4.624;2023-02-12T16:56:55;104010.0;;;10.2;62.0
52343;BME280;38277;51.972;4.624;2023-02-12T17:01:38;104020.0;;;10.1;62.5
52343;BME280;38277;51.972;4.624;2023-02-12T17:06:29;104030.0;;;10.1;62.5
52343;BME280;38277;51.972;4.624;2023-02-12T17:10:34;104030.0;;;10.1;62.5
52343;BME280;38277;51.972;4.624;2023-02-12T17:15:29;104030.0;;;10.0;62.5
52343;BME280;38277;51.972;4.624;2023-02-12T17:19:42;104030.0;;;10.0;63.0
52343;BME280;38277;51.972;4.624;2023-02-12T17:28:20;104030.0;;;10.0;63.0
52343;BME280;38277;51.972;4.624;2023-02-12T17:32:46;104030.0;;;9.9;63.5
52343;BME280;38277;51.972;4.624;2023-02-12T17:37:33;104040.0;;;9.9;63.5
52343;BME280;38277;51.972;4.624;2023-02-12T17:42:12;104030.0;;;9.9;63.5
52343;BME280;38277;51.972;4.624;2023-02-12T17:50:44;104040.0;;;9.9;63.5
52343;BME280;38277;51.972;4.624;2023-02-12T17:55:27;104050.0;;;9.9;63.5
52343;BME280;38277;51.972;4.624;2023-02-12T18:04:36;104060.0;;;9.9;63.5
52343;BME280;38277;51.972;4.624;2023-02-12T18:08:47;104060.0;;;9.8;64.0
52343;BME280;38277;51.972;4.624;2023-02-12T18:13:20;104050.0;;;9.8;64.0
52343;BME280;38277;51.972;4.624;2023-02-12T18:22:22;104050.0;;;9.8;64.0
52343;BME280;38277;51.972;4.624;2023-02-12T18:27:13;104050.0;;;9.8;64.0
52343;BME280;38277;51.972;4.624;2023-02-12T18:31:43;104050.0;;;9.8;64.0
52343;BME280;38277;51.972;4.624;2023-02-12T18:36:01;104050.0;;;9.8;64.5
52343;BME280;38277;51.972;4.624;2023-02-12T18:40:28;104040.0;;;9.8;64.5
52343;BME280;38277;51.972;4.624;2023-02-12T18:45:05;104040.0;;;9.8;64.5
52343;BME280;38277;51.972;4.624;2023-02-12T18:49:35;104040.0;;;9.8;65.0
52343;BME280;38277;51.972;4.624;2023-02-12T18:53:52;104040.0;;;9.8;65.0
52343;BME280;38277;51.972;4.624;2023-02-12T18:58:30;104030.0;;;9.8;65.0
52343;BME280;38277;51.972;4.624;2023-02-12T19:02:51;104040.0;;;9.7;65.0
52343;BME280;38277;51.972;4.624;2023-02-12T19:07:26;104030.0;;;9.7;65.0
52343;BME280;38277;51.972;4.624;2023-02-12T19:11:50;104030.0;;;9.7;65.5
52343;BME280;38277;51.972;4.624;2023-02-12T19:16:44;104040.0;;;9.7;65.5
52343;BME280;38277;51.972;4.624;2023-02-12T19:21:05;104040.0;;;9.7;65.5
52343;BME280;38277;51.972;4.624;2023-02-12T19:25:18;104030.0;;;9.7;65.5
52343;BME280;38277;51.972;4.624;2023-02-12T19:29:54;104030.0;;;9.7;65.5
52343;BME280;38277;51.972;4.624;2023-02-12T19:39:02;104040.0;;;9.6;66.0
52343;BME280;38277;51.972;4.624;2023-02-12T19:43:44;104030.0;;;9.6;66.0
52343;BME280;38277;51.972;4.624;2023-02-12T19:47:50;104030.0;;;9.6;66.0
52343;BME280;38277;51.972;4.624;2023-02-12T19:52:29;104020.0;;;9.6;66.0
52343;BME280;38277;51.972;4.624;2023-02-12T20:01:22;104010.0;;;9.6;66.5
52343;BME280;38277;51.972;4.624;2023-02-12T20:06:25;104020.0;;;9.5;66.5
52343;BME280;38277;51.972;4.624;2023-02-12T20:10:20;104020.0;;;9.6;66.5
52343;BME280;38277;51.972;4.624;2023-02-12T20:14:52;104010.0;;;9.6;66.5
52343;BME280;38277;51.972;4.624;2023-02-12T20:19:19;104010.0;;;9.6;66.5
52343;BME280;38277;51.972;4.624;2023-02-12T20:24:16;104020.0;;;9.6;67.0
52343;BME280;38277;51.972;4.624;2023-02-12T20:28:29;104020.0;;;9.6;67.0
52343;BME280;38277;51.972;4.624;2023-02-12T20:33:07;104010.0;;;9.5;67.0
52343;BME280;38277;51.972;4.624;2023-02-12T20:37:26;104010.0;;;9.5;67.0
52343;BME280;38277;51.972;4.624;2023-02-12T20:42:26;104020.0;;;9.5;67.0
52343;BME280;38277;51.972;4.624;2023-02-12T20:46:29;104010.0;;;9.5;67.5
52343;BME280;38277;51.972;4.624;2023-02-12T20:55:21;104020.0;;;9.5;67.5
52343;BME280;38277;51.972;4.624;2023-02-12T20:59:50;104020.0;;;9.5;67.5
52343;BME280;38277;51.972;4.624;2023-02-12T21:04:41;104030.0;;;9.5;67.5
52343;BME280;38277;51.972;4.624;2023-02-12T21:13:34;104010.0;;;9.5;68.0
52343;BME280;38277;51.972;4.624;2023-02-12T21:18:08;104020.0;;;9.4;68.0
52343;BME280;38277;51.972;4.624;2023-02-12T21:35:57;104020.0;;;9.5;68.5
52343;BME280;38277;51.972;4.624;2023-02-12T21:40:22;104010.0;;;9.5;68.5
52343;BME280;38277;51.972;4.624;2023-02-12T21:49:16;104010.0;;;9.5;68.5
52343;BME280;38277;51.972;4.624;2023-02-12T21:53:51;104020.0;;;9.5;68.5
52343;BME280;38277;51.972;4.624;2023-02-12T21:58:27;104020.0;;;9.5;68.5
52343;BME280;38277;51.972;4.624;2023-02-12T22:03:05;104020.0;;;9.5;68.5
52343;BME280;38277;51.972;4.624;2023-02-12T22:07:33;104020.0;;;9.5;68.5
52343;BME280;38277;51.972;4.624;2023-02-12T22:11:50;104010.0;;;9.5;68.5
52343;BME280;38277;51.972;4.624;2023-02-12T22:16:48;104000.0;;;9.5;68.5
52343;BME280;38277;51.972;4.624;2023-02-12T22:21:36;104000.0;;;9.5;69.0
52343;BME280;38277;51.972;4.624;2023-02-12T22:25:31;103990.0;;;9.5;69.0
52343;BME280;38277;51.972;4.624;2023-02-12T22:29:48;103990.0;;;9.5;69.0
52343;BME280;38277;51.972;4.624;2023-02-12T22:34:18;103990.0;;;9.4;69.0
52343;BME280;38277;51.972;4.624;2023-02-12T22:38:58;104000.0;;;9.4;69.0
52343;BME280;38277;51.972;4.624;2023-02-12T22:43:40;104000.0;;;9.4;69.0
52343;BME280;38277;51.972;4.624;2023-02-12T22:48:08;104000.0;;;9.4;69.0
52343;BME280;38277;51.972;4.624;2023-02-12T22:52:15;104000.0;;;9.4;69.0
52343;BME280;38277;51.972;4.624;2023-02-12T22:56:51;104000.0;;;9.4;69.0
52343;BME280;38277;51.972;4.624;2023-02-12T23:01:45;103990.0;;;9.4;69.0
52343;BME280;38277;51.972;4.624;2023-02-12T23:06:10;103990.0;;;9.4;69.0
52343;BME280;38277;51.972;4.624;2023-02-12T23:10:17;103990.0;;;9.4;69.0
52343;BME280;38277;51.972;4.624;2023-02-12T23:15:11;103990.0;;;9.4;69.0
52343;BME280;38277;51.972;4.624;2023-02-12T23:19:47;104000.0;;;9.4;69.0
52343;BME280;38277;51.972;4.624;2023-02-12T23:24:10;104000.0;;;9.4;69.0
52343;BME280;38277;51.972;4.624;2023-02-12T23:28:59;103990.0;;;9.4;69.5
52343;BME280;38277;51.972;4.624;2023-02-12T23:32:53;103980.0;;;9.3;69.5
52343;BME280;38277;51.972;4.624;2023-02-12T23:37:41;103980.0;;;9.3;69.5
52343;BME280;38277;51.972;4.624;2023-02-12T23:42:07;103980.0;;;9.3;69.5
52343;BME280;38277;51.972;4.624;2023-02-12T23:46:41;103970.0;;;9.3;69.5
52343;BME280;38277;51.972;4.624;2023-02-12T23:51:11;103960.0;;;9.3;69.5
52343;BME280;38277;51.972;4.624;2023-02-12T23:55:28;103960.0;;;9.2;69.5
